Time;durP1;ratioP1;P1;durP2;ratioP2;P2;SDS_P1;SDS_P2;PMS_P1;PMS_P2;Temp;Humidity;BMP_temperature;BMP_pressure;BME280_temperature;BME280_humidity;BME280_pressure;Samples;Min_cycle;Max_cycle;Signal;HPM_P1;HPM_P2
2023/09/02 00:00:41;;;;;;;2.00;1.75;;;18.60;99.90;;;;;;5065381;28;20052;-74
2023/09/02 00:03:08;;;;;;;2.00;1.77;;;18.60;99.90;;;;;;5065070;28;20098;-74
2023/09/02 00:05:35;;;;;;;2.22;1.75;;;18.70;99.90;;;;;;5065224;28;20057;-74
2023/09/02 00:08:02;;;;;;;2.28;2.08;;;18.70;99.90;;;;;;5064769;28;20552;-74
2023/09/02 00:10:28;;;;;;;2.08;1.67;;;18.70;99.90;;;;;;5029238;28;20452;-74
2023/09/02 00:12:55;;;;;;;2.08;1.80;;;18.70;99.90;;;;;;5063747;28;20048;-74
2023/09/02 00:15:22;;;;;;;2.53;2.08;;;18.70;99.90;;;;;;5065175;28;20098;-74
2023/09/02 00:17:49;;;;;;;2.25;1.77;;;18.70;99.90;;;;;;5065402;28;20053;-74
2023/09/02 00:20:17;;;;;;;2.60;1.92;;;18.70;99.90;;;;;;5048878;28;20097;-74
2023/09/02 00:22:44;;;;;;;2.38;1.98;;;18.70;99.90;;;;;;5048390;28;20185;-73
2023/09/02 00:25:11;;;;;;;2.53;1.70;;;18.70;99.90;;;;;;5065133;28;20052;-73
2023/09/02 00:27:38;;;;;;;2.60;2.33;;;18.70;99.90;;;;;;5030040;28;20060;-73
2023/09/02 00:30:05;;;;;;;3.53;3.00;;;18.70;99.90;;;;;;5065108;28;20051;-73
2023/09/02 00:32:33;;;;;;;2.95;2.55;;;18.70;99.90;;;;;;5064525;28;20052;-74
2023/09/02 00:35:00;;;;;;;3.78;3.03;;;18.70;99.90;;;;;;5065744;28;20095;-74
2023/09/02 00:37:27;;;;;;;3.85;3.38;;;18.60;99.90;;;;;;5065531;28;20052;-73
2023/09/02 00:39:53;;;;;;;5.55;4.25;;;18.60;99.90;;;;;;5064691;28;20052;-74
2023/09/02 00:42:20;;;;;;;5.40;4.88;;;18.50;99.90;;;;;;5062829;28;20097;-74
2023/09/02 00:44:47;;;;;;;5.63;4.82;;;18.40;99.90;;;;;;5048309;28;20106;-74
2023/09/02 00:47:14;;;;;;;5.80;5.28;;;18.40;99.90;;;;;;5031361;28;20048;-74
2023/09/02 00:49:41;;;;;;;5.28;4.78;;;18.40;99.90;;;;;;5031695;28;20682;-73
2023/09/02 00:52:08;;;;;;;4.82;4.35;;;18.40;99.90;;;;;;5063782;28;20556;-74
2023/09/02 00:54:34;;;;;;;4.18;3.55;;;18.40;99.90;;;;;;5065677;28;20056;-73
2023/09/02 00:57:01;;;;;;;4.20;3.80;;;18.40;99.90;;;;;;5062308;28;20072;-73
2023/09/02 00:59:28;;;;;;;5.70;4.63;;;18.40;99.90;;;;;;5064874;28;20181;-74
2023/09/02 01:01:55;;;;;;;4.95;4.32;;;18.40;99.90;;;;;;5064055;28;20462;-73
2023/09/02 01:04:22;;;;;;;4.57;4.10;;;18.40;99.90;;;;;;5044029;28;20049;-74
2023/09/02 01:06:49;;;;;;;4.35;3.40;;;18.30;99.90;;;;;;5061135;28;20052;-74
2023/09/02 01:09:16;;;;;;;4.53;3.90;;;18.30;99.90;;;;;;5064761;28;20130;-74
2023/09/02 01:11:44;;;;;;;4.22;3.65;;;18.30;99.90;;;;;;5046102;28;20048;-73
2023/09/02 01:14:11;;;;;;;4.55;3.72;;;18.30;99.90;;;;;;5031245;28;20135;-73
2023/09/02 01:16:38;;;;;;;4.15;3.72;;;18.30;99.90;;;;;;5048166;28;20082;-73
2023/09/02 01:19:08;;;;;;;3.80;3.30;;;18.30;99.90;;;;;;5047791;28;20049;-74
2023/09/02 01:22:15;;;;;;;4.68;3.92;;;18.30;99.90;;;;;;5049823;28;20052;-74
2023/09/02 01:25:01;;;;;;;3.53;3.03;;;18.20;99.90;;;;;;5069980;28;20049;-74
2023/09/02 01:27:44;;;;;;;3.80;2.92;;;18.20;99.90;;;;;;5050758;28;20045;-73
2023/09/02 01:30:19;;;;;;;4.30;3.38;;;18.30;99.90;;;;;;5068232;28;20052;-73
2023/09/02 01:32:48;;;;;;;4.63;3.70;;;18.20;99.90;;;;;;5066430;28;20045;-74
2023/09/02 01:35:21;;;;;;;4.18;3.58;;;18.20;99.90;;;;;;5067411;28;20571;-73
2023/09/02 01:37:51;;;;;;;4.30;3.72;;;18.20;99.90;;;;;;5046751;28;20045;-73
2023/09/02 01:40:22;;;;;;;3.60;2.75;;;18.20;99.90;;;;;;5067450;28;20060;-74
2023/09/02 01:42:50;;;;;;;3.20;2.60;;;18.20;99.90;;;;;;5070825;28;20048;-73
2023/09/02 01:45:18;;;;;;;3.33;2.70;;;18.20;99.90;;;;;;5086266;28;20573;-73
2023/09/02 01:47:49;;;;;;;3.78;2.88;;;18.20;99.90;;;;;;5068218;28;20129;-73
2023/09/02 01:50:17;;;;;;;2.90;2.60;;;18.20;99.90;;;;;;5085315;28;20048;-73
2023/09/02 01:52:43;;;;;;;3.03;2.20;;;18.20;99.90;;;;;;5084494;28;20105;-73
2023/09/02 01:55:10;;;;;;;3.80;2.50;;;18.20;99.90;;;;;;5085252;28;20271;-73
2023/09/02 01:57:37;;;;;;;3.22;2.58;;;18.30;99.90;;;;;;5082753;28;20051;-73
2023/09/02 02:00:05;;;;;;;2.50;2.25;;;18.30;99.90;;;;;;5068383;28;20412;-74
2023/09/02 02:02:32;;;;;;;3.08;2.38;;;18.30;99.90;;;;;;5068976;28;20063;-73
2023/09/02 02:04:59;;;;;;;3.15;2.67;;;18.30;99.90;;;;;;5068742;28;20152;-74
2023/09/02 02:07:30;;;;;;;3.42;2.50;;;18.30;99.90;;;;;;5068694;28;20646;-73
2023/09/02 02:09:58;;;;;;;3.58;2.83;;;18.30;99.90;;;;;;5067755;28;20048;-74
2023/09/02 02:12:25;;;;;;;3.35;2.47;;;18.30;99.90;;;;;;5066767;28;20053;-72
2023/09/02 02:14:52;;;;;;;3.08;2.70;;;18.30;99.90;;;;;;5067706;28;20068;-73
2023/09/02 02:17:19;;;;;;;3.25;2.63;;;18.30;99.90;;;;;;5034246;28;20056;-72
2023/09/02 02:19:45;;;;;;;2.60;2.20;;;18.30;99.90;;;;;;5069051;28;20052;-72
2023/09/02 02:22:12;;;;;;;2.80;2.10;;;18.40;99.90;;;;;;5067145;28;20122;-72
2023/09/02 02:24:39;;;;;;;3.25;2.50;;;18.40;99.90;;;;;;5069038;28;20465;-72
2023/09/02 02:27:06;;;;;;;3.80;3.15;;;18.40;99.90;;;;;;5066797;28;20037;-72
2023/09/02 02:29:34;;;;;;;2.75;2.28;;;18.30;99.90;;;;;;5066690;28;20121;-72
2023/09/02 02:32:00;;;;;;;4.05;3.00;;;18.30;99.90;;;;;;5064481;28;20117;-72
2023/09/02 02:34:27;;;;;;;4.03;3.63;;;18.30;99.90;;;;;;5067359;28;20079;-72
2023/09/02 02:36:54;;;;;;;3.95;3.20;;;18.30;99.90;;;;;;5067009;28;20049;-72
2023/09/02 02:39:21;;;;;;;3.80;2.80;;;18.30;99.90;;;;;;5068448;28;20072;-72
2023/09/02 02:41:47;;;;;;;3.40;2.72;;;18.30;99.90;;;;;;5066528;28;20137;-73
2023/09/02 02:44:14;;;;;;;3.17;2.50;;;18.30;99.90;;;;;;5068853;28;20446;-73
2023/09/02 02:46:41;;;;;;;2.88;2.40;;;18.30;99.90;;;;;;5067752;28;20056;-73
2023/09/02 02:49:08;;;;;;;2.72;2.40;;;18.30;99.90;;;;;;5068114;28;20051;-72
2023/09/02 02:51:35;;;;;;;5.20;3.10;;;18.30;99.90;;;;;;5066471;28;20053;-72
2023/09/02 02:54:01;;;;;;;3.63;2.85;;;18.30;99.90;;;;;;5067210;28;20057;-73
2023/09/02 02:56:28;;;;;;;3.67;3.25;;;18.30;99.90;;;;;;5066148;28;20169;-72
2023/09/02 02:58:55;;;;;;;4.60;3.97;;;18.30;99.90;;;;;;5068234;28;20048;-73
2023/09/02 03:01:22;;;;;;;4.03;3.15;;;18.20;99.90;;;;;;5067684;28;20048;-72
2023/09/02 03:03:49;;;;;;;3.85;3.22;;;18.20;99.90;;;;;;5050218;28;20086;-72
2023/09/02 03:06:20;;;;;;;3.38;3.00;;;18.20;99.90;;;;;;5049415;28;20060;-73
2023/09/02 03:08:47;;;;;;;5.78;4.20;;;18.20;99.90;;;;;;5067901;28;20045;-73
2023/09/02 03:11:13;;;;;;;5.88;4.70;;;18.10;99.90;;;;;;5065864;28;20781;-73
2023/09/02 03:13:40;;;;;;;7.25;6.47;;;18.10;99.90;;;;;;5066419;28;20067;-73
2023/09/02 03:16:07;;;;;;;5.57;4.85;;;18.00;99.90;;;;;;5066331;28;20048;-73
2023/09/02 03:18:34;;;;;;;5.63;4.97;;;18.00;99.90;;;;;;5068077;28;20051;-73
2023/09/02 03:21:04;;;;;;;4.60;4.13;;;18.00;99.90;;;;;;5067210;28;20105;-73
2023/09/02 03:23:34;;;;;;;4.40;3.70;;;18.10;99.90;;;;;;5067869;28;20165;-73
2023/09/02 03:26:08;;;;;;;4.65;4.00;;;18.10;99.90;;;;;;5064969;28;20036;-73
2023/09/02 03:28:35;;;;;;;5.47;3.97;;;18.10;99.90;;;;;;5066495;28;20106;-73
2023/09/02 03:31:08;;;;;;;3.75;2.78;;;18.10;99.90;;;;;;5067778;28;20052;-73
2023/09/02 03:33:35;;;;;;;4.43;3.70;;;18.10;99.90;;;;;;5066529;28;20547;-73
2023/09/02 03:36:02;;;;;;;5.22;4.28;;;18.10;99.90;;;;;;5066384;28;20070;-74
2023/09/02 03:38:30;;;;;;;5.20;4.57;;;18.10;99.90;;;;;;5050005;28;20099;-73
2023/09/02 03:40:57;;;;;;;4.63;3.92;;;18.10;99.90;;;;;;5048869;28;20045;-73
2023/09/02 03:43:23;;;;;;;5.45;4.25;;;18.10;99.90;;;;;;5032280;28;20088;-74
2023/09/02 03:45:50;;;;;;;4.25;3.85;;;18.10;99.90;;;;;;5032967;28;20063;-74
2023/09/02 03:48:20;;;;;;;4.78;3.83;;;18.10;99.90;;;;;;5067121;28;20082;-73
2023/09/02 03:51:11;;;;;;;5.32;3.78;;;18.10;99.90;;;;;;5066150;28;20044;-74
2023/09/02 03:53:39;;;;;;;3.83;3.42;;;18.10;99.90;;;;;;5034511;28;20135;-73
2023/09/02 03:56:06;;;;;;;3.95;3.35;;;18.10;99.90;;;;;;5064429;28;20048;-73
2023/09/02 03:58:32;;;;;;;4.30;3.35;;;18.10;99.90;;;;;;5065640;28;20060;-74
2023/09/02 04:00:59;;;;;;;5.10;4.30;;;18.10;99.90;;;;;;5067252;28;20596;-73
2023/09/02 04:03:27;;;;;;;5.95;4.38;;;18.10;99.90;;;;;;5049368;28;20047;-73
2023/09/02 04:05:54;;;;;;;4.47;3.65;;;18.10;99.90;;;;;;5066857;28;20064;-72
2023/09/02 04:08:25;;;;;;;4.50;3.63;;;18.10;99.90;;;;;;5065576;28;20044;-73
2023/09/02 04:10:56;;;;;;;5.45;3.88;;;18.10;99.90;;;;;;5065091;28;20496;-73
2023/09/02 04:13:26;;;;;;;4.78;3.47;;;18.10;99.90;;;;;;5081631;28;20072;-73
2023/09/02 04:15:56;;;;;;;4.70;4.13;;;18.10;99.90;;;;;;5065353;28;20630;-73
2023/09/02 04:18:24;;;;;;;4.32;3.58;;;18.10;99.90;;;;;;5066546;28;20049;-73
2023/09/02 04:20:51;;;;;;;5.10;3.92;;;18.10;99.90;;;;;;5099264;28;20047;-73
2023/09/02 04:23:18;;;;;;;4.05;3.30;;;18.10;99.90;;;;;;5098811;28;20056;-73
2023/09/02 04:25:46;;;;;;;4.25;3.05;;;18.10;99.90;;;;;;5081633;28;20090;-73
2023/09/02 04:28:14;;;;;;;3.50;2.88;;;18.10;99.90;;;;;;5063834;28;20059;-73
2023/09/02 04:30:41;;;;;;;2.78;2.45;;;18.10;99.90;;;;;;5082238;28;20106;-73
2023/09/02 04:33:08;;;;;;;2.80;2.20;;;18.10;99.90;;;;;;5098144;28;20072;-73
2023/09/02 04:35:39;;;;;;;3.97;3.05;;;18.20;99.90;;;;;;5066719;28;20092;-73
2023/09/02 04:38:06;;;;;;;3.45;2.70;;;18.20;99.90;;;;;;5066298;28;20083;-73
2023/09/02 04:40:36;;;;;;;3.50;2.75;;;18.10;99.90;;;;;;5098743;28;20053;-73
2023/09/02 04:43:08;;;;;;;2.63;2.08;;;18.10;99.90;;;;;;5063047;28;20048;-73
2023/09/02 04:45:35;;;;;;;3.33;2.35;;;18.10;99.90;;;;;;5048409;28;20052;-73
2023/09/02 04:48:02;;;;;;;2.95;2.45;;;18.10;99.90;;;;;;5061445;28;20040;-73
2023/09/02 04:50:30;;;;;;;3.00;2.47;;;18.10;99.90;;;;;;5063499;28;20057;-73
2023/09/02 04:52:57;;;;;;;2.80;2.20;;;18.10;99.90;;;;;;5079206;28;20158;-73
2023/09/02 04:55:28;;;;;;;2.92;1.85;;;18.20;99.90;;;;;;5046381;28;20523;-73
2023/09/02 04:57:56;;;;;;;2.65;2.28;;;18.20;99.90;;;;;;5062478;28;20135;-73
2023/09/02 05:00:24;;;;;;;2.92;2.05;;;18.20;99.90;;;;;;5064391;28;20484;-73
2023/09/02 05:02:51;;;;;;;2.45;2.22;;;18.20;99.90;;;;;;5042935;28;20056;-73
2023/09/02 05:05:18;;;;;;;2.97;2.15;;;18.20;99.90;;;;;;5028086;28;20059;-73
2023/09/02 05:07:45;;;;;;;4.20;2.40;;;18.20;99.90;;;;;;5039438;28;20118;-73
2023/09/02 05:10:12;;;;;;;3.08;2.45;;;18.20;99.90;;;;;;5063694;28;20574;-73
2023/09/02 05:12:39;;;;;;;3.42;2.55;;;18.20;99.90;;;;;;5061982;28;20045;-73
2023/09/02 05:15:07;;;;;;;2.88;2.28;;;18.20;99.90;;;;;;5062772;28;20048;-73
2023/09/02 05:17:33;;;;;;;3.38;2.78;;;18.20;99.90;;;;;;5065178;28;20113;-73
2023/09/02 05:20:01;;;;;;;3.53;2.63;;;18.20;99.90;;;;;;5048003;28;20349;-74
2023/09/02 05:22:27;;;;;;;3.10;2.42;;;18.20;99.90;;;;;;5057080;28;20072;-73
2023/09/02 05:24:54;;;;;;;3.63;2.80;;;18.20;99.90;;;;;;5060054;28;20041;-73
2023/09/02 05:27:21;;;;;;;3.30;2.22;;;18.20;99.90;;;;;;5060885;28;20131;-73
2023/09/02 05:29:48;;;;;;;2.70;2.25;;;18.20;99.90;;;;;;5064108;28;20522;-73
2023/09/02 05:32:15;;;;;;;3.05;2.25;;;18.20;99.90;;;;;;5047359;28;20036;-73
2023/09/02 05:34:42;;;;;;;3.33;2.53;;;18.20;99.90;;;;;;5064318;28;20061;-73
2023/09/02 05:37:09;;;;;;;2.80;2.30;;;18.20;99.90;;;;;;5062461;28;20135;-73
2023/09/02 05:39:36;;;;;;;2.97;2.00;;;18.20;99.90;;;;;;5057087;28;20071;-73
2023/09/02 05:42:03;;;;;;;2.88;2.22;;;18.20;99.90;;;;;;5060047;28;20109;-74
2023/09/02 05:44:32;;;;;;;3.05;2.22;;;18.20;99.90;;;;;;5063253;28;20051;-74
2023/09/02 05:46:59;;;;;;;2.55;2.05;;;18.20;99.90;;;;;;5094184;28;20052;-74
2023/09/02 05:49:26;;;;;;;3.60;2.72;;;18.30;99.90;;;;;;5056586;28;20381;-74
2023/09/02 05:51:52;;;;;;;3.65;2.83;;;18.30;99.90;;;;;;5059574;28;20098;-73
2023/09/02 05:54:19;;;;;;;4.28;3.10;;;18.20;99.90;;;;;;5059539;28;20090;-73
2023/09/02 05:56:49;;;;;;;4.55;4.03;;;18.20;99.90;;;;;;5061737;28;20098;-73
2023/09/02 05:59:15;;;;;;;3.85;3.03;;;18.20;99.90;;;;;;5064364;28;20040;-74
2023/09/02 06:01:43;;;;;;;3.28;2.50;;;18.30;99.90;;;;;;5076011;28;20072;-74
2023/09/02 06:04:10;;;;;;;3.33;2.40;;;18.30;99.90;;;;;;5062096;28;20117;-74
2023/09/02 06:06:36;;;;;;;3.90;3.08;;;18.30;99.90;;;;;;5054283;28;20075;-74
2023/09/02 06:09:03;;;;;;;3.83;2.97;;;18.30;99.90;;;;;;5015695;28;20052;-74
2023/09/02 06:11:31;;;;;;;3.75;3.17;;;18.30;99.90;;;;;;5042326;28;20661;-73
2023/09/02 06:13:57;;;;;;;4.38;3.80;;;18.30;99.90;;;;;;5066667;28;20086;-73
2023/09/02 06:16:24;;;;;;;6.15;4.80;;;18.30;99.90;;;;;;5052109;28;20048;-74
2023/09/02 06:18:51;;;;;;;5.40;3.80;;;18.30;99.90;;;;;;5041907;28;20110;-74
2023/09/02 06:21:18;;;;;;;5.63;3.35;;;18.20;99.90;;;;;;5063715;28;20484;-73
2023/09/02 06:23:45;;;;;;;5.53;4.78;;;18.30;99.90;;;;;;5057585;28;20433;-74
2023/09/02 06:26:12;;;;;;;5.35;4.10;;;18.30;99.90;;;;;;5044208;28;20048;-73
2023/09/02 06:28:39;;;;;;;6.13;4.50;;;18.30;99.90;;;;;;5062090;28;20052;-74
2023/09/02 06:31:07;;;;;;;4.93;4.05;;;18.30;99.90;;;;;;5062771;28;20456;-74
2023/09/02 06:33:34;;;;;;;4.32;3.63;;;18.30;99.90;;;;;;5065788;28;20666;-74
2023/09/02 06:36:09;;;;;;;3.90;3.30;;;18.30;99.90;;;;;;5044172;28;20218;-74
2023/09/02 06:38:36;;;;;;;3.78;2.97;;;18.30;99.90;;;;;;5058485;28;20797;-73
2023/09/02 06:41:13;;;;;;;4.45;3.42;;;18.40;99.90;;;;;;5070161;28;20950;-75
2023/09/02 06:43:40;;;;;;;4.60;3.90;;;18.40;99.90;;;;;;5072095;28;20052;-74
2023/09/02 06:46:11;;;;;;;4.93;3.85;;;18.40;99.90;;;;;;5056753;28;20467;-74
2023/09/02 06:48:38;;;;;;;5.28;4.10;;;18.40;99.90;;;;;;5053515;28;20056;-76
2023/09/02 06:51:05;;;;;;;5.13;4.18;;;18.40;99.90;;;;;;5058479;28;20059;-76
2023/09/02 06:53:32;;;;;;;5.47;4.60;;;18.50;99.90;;;;;;5060827;28;20044;-73
2023/09/02 06:55:58;;;;;;;4.28;3.38;;;18.50;99.90;;;;;;5080897;28;20184;-73
2023/09/02 06:58:25;;;;;;;3.90;3.35;;;18.60;99.90;;;;;;5067111;28;20053;-73
2023/09/02 07:00:52;;;;;;;4.80;4.28;;;18.60;99.90;;;;;;5063180;28;20040;-73
2023/09/02 07:03:18;;;;;;;4.03;3.55;;;18.70;99.90;;;;;;5044441;28;20597;-73
2023/09/02 07:05:46;;;;;;;3.38;2.92;;;18.80;99.90;;;;;;5058504;28;20121;-75
2023/09/02 07:08:13;;;;;;;3.30;2.80;;;19.00;99.90;;;;;;5092282;28;20052;-73
2023/09/02 07:10:40;;;;;;;3.30;2.90;;;19.10;99.90;;;;;;5062781;28;20174;-74
2023/09/02 07:13:06;;;;;;;3.42;3.13;;;19.30;99.90;;;;;;5049743;28;20058;-74
2023/09/02 07:15:35;;;;;;;3.70;3.13;;;19.30;99.90;;;;;;5064914;28;20049;-74
2023/09/02 07:18:02;;;;;;;3.85;3.08;;;19.40;99.90;;;;;;5065565;28;20480;-74
2023/09/02 07:20:36;;;;;;;3.75;3.35;;;19.40;99.90;;;;;;5063371;28;20041;-74
2023/09/02 07:23:03;;;;;;;2.88;2.47;;;19.50;99.90;;;;;;5078680;28;20411;-74
2023/09/02 07:25:30;;;;;;;2.50;2.30;;;19.50;99.90;;;;;;5075511;28;20037;-74
2023/09/02 07:27:56;;;;;;;3.75;3.30;;;19.50;99.90;;;;;;5044231;28;20868;-73
2023/09/02 07:30:23;;;;;;;2.95;2.63;;;19.40;99.90;;;;;;5067113;28;20040;-73
2023/09/02 07:32:50;;;;;;;3.00;2.70;;;19.40;99.90;;;;;;5098775;28;20541;-73
2023/09/02 07:35:17;;;;;;;3.30;2.83;;;19.30;99.90;;;;;;5061213;28;20053;-73
2023/09/02 07:37:43;;;;;;;3.25;2.83;;;19.30;99.90;;;;;;5060780;28;20051;-73
2023/09/02 07:40:11;;;;;;;3.25;2.70;;;19.30;99.90;;;;;;5048207;28;20053;-74
2023/09/02 07:42:37;;;;;;;4.47;3.22;;;19.40;99.90;;;;;;5056136;28;20044;-73
2023/09/02 07:45:04;;;;;;;2.85;2.33;;;19.50;99.90;;;;;;5062733;28;20083;-73
2023/09/02 07:47:31;;;;;;;3.13;2.60;;;19.60;99.90;;;;;;5056947;28;20048;-73
2023/09/02 07:49:58;;;;;;;3.50;2.88;;;19.70;91.10;;;;;;5054613;28;20048;-73
2023/09/02 07:52:25;;;;;;;4.32;3.75;;;19.70;95.60;;;;;;5060579;28;20052;-73
2023/09/02 07:54:52;;;;;;;3.85;3.45;;;19.70;58.40;;;;;;5058188;28;20044;-73
2023/09/02 07:57:19;;;;;;;3.40;3.10;;;19.70;90.70;;;;;;5054774;28;20056;-74
2023/09/02 07:59:45;;;;;;;3.10;2.65;;;19.60;74.50;;;;;;5060891;28;20447;-74
2023/09/02 08:02:12;;;;;;;3.33;2.80;;;19.70;46.50;;;;;;5077825;28;20070;-74
2023/09/02 08:04:39;;;;;;;3.40;2.85;;;19.80;59.80;;;;;;5060775;28;20071;-74
2023/09/02 08:07:06;;;;;;;3.28;2.95;;;19.80;15.50;;;;;;5059922;28;20040;-74
2023/09/02 08:09:32;;;;;;;4.25;3.40;;;19.90;8.50;;;;;;5032097;28;20049;-75
2023/09/02 08:11:59;;;;;;;3.33;2.90;;;19.90;11.80;;;;;;5062945;28;20053;-75
2023/09/02 08:14:26;;;;;;;3.53;3.10;;;19.80;1.80;;;;;;5074093;28;20056;-74
2023/09/02 08:16:53;;;;;;;3.63;3.00;;;19.80;12.00;;;;;;5064400;28;20670;-74
2023/09/02 08:19:19;;;;;;;3.42;2.70;;;19.80;1.00;;;;;;5057176;28;20044;-74
2023/09/02 08:21:46;;;;;;;3.00;2.50;;;19.90;1.00;;;;;;5062282;28;20113;-74
2023/09/02 08:24:13;;;;;;;3.55;2.90;;;19.90;1.50;;;;;;5057242;28;20055;-74
2023/09/02 08:26:41;;;;;;;2.40;2.03;;;19.90;1.00;;;;;;5052697;28;20550;-74
2023/09/02 08:29:08;;;;;;;2.70;1.88;;;19.90;1.00;;;;;;5053820;28;20087;-74
2023/09/02 08:31:34;;;;;;;2.65;1.70;;;20.00;1.00;;;;;;5054929;28;20076;-74
2023/09/02 08:34:01;;;;;;;2.25;1.70;;;20.20;1.00;;;;;;5054556;28;20063;-74
2023/09/02 08:36:28;;;;;;;2.25;1.95;;;20.30;1.00;;;;;;5057105;28;20116;-74
2023/09/02 08:38:56;;;;;;;2.85;2.28;;;20.30;99.90;;;;;;5060794;28;20071;-74
2023/09/02 08:41:29;;;;;;;2.45;1.90;;;20.30;99.90;;;;;;5056902;28;20114;-73
2023/09/02 08:44:00;;;;;;;2.97;2.40;;;20.40;99.90;;;;;;5067991;28;20041;-73
2023/09/02 08:46:27;;;;;;;3.42;2.97;;;20.40;99.90;;;;;;5056425;28;20045;-73
2023/09/02 08:48:58;;;;;;;2.60;1.90;;;20.40;99.90;;;;;;5060745;28;20091;-74
2023/09/02 08:51:25;;;;;;;2.50;2.20;;;20.50;99.90;;;;;;5063718;28;20048;-74
2023/09/02 08:53:56;;;;;;;2.20;1.80;;;20.50;99.90;;;;;;5057721;28;20425;-74
2023/09/02 08:56:23;;;;;;;1.75;1.52;;;20.50;99.90;;;;;;5061369;28;20080;-74
2023/09/02 08:58:50;;;;;;;3.28;1.90;;;20.60;99.90;;;;;;5062323;28;20059;-74
2023/09/02 09:01:18;;;;;;;2.05;1.75;;;20.60;99.90;;;;;;5045549;28;20117;-74
2023/09/02 09:03:48;;;;;;;2.28;1.70;;;20.60;99.90;;;;;;5062124;28;20052;-73
2023/09/02 09:06:15;;;;;;;2.13;1.48;;;20.70;99.90;;;;;;5060067;28;20133;-76
2023/09/02 09:08:41;;;;;;;2.40;1.77;;;20.80;99.90;;;;;;5030205;28;20057;-73
2023/09/02 09:11:08;;;;;;;2.10;1.58;;;20.70;99.90;;;;;;5045840;28;20084;-73
2023/09/02 09:13:35;;;;;;;1.85;1.52;;;20.70;99.90;;;;;;5046527;28;20057;-73
2023/09/02 09:16:02;;;;;;;2.00;1.60;;;20.60;99.90;;;;;;5087192;28;20129;-73
2023/09/02 09:18:29;;;;;;;1.80;1.50;;;20.60;99.90;;;;;;5063099;28;20071;-73
2023/09/02 09:20:55;;;;;;;2.05;1.40;;;20.70;99.90;;;;;;5042812;28;20133;-73
2023/09/02 09:23:22;;;;;;;2.05;1.52;;;20.70;24.20;;;;;;5065081;28;20048;-74
2023/09/02 09:25:51;;;;;;;2.00;1.50;;;20.70;54.30;;;;;;5065240;28;20048;-73
2023/09/02 09:28:18;;;;;;;1.63;1.23;;;20.80;1.00;;;;;;5078056;28;20044;-73
2023/09/02 09:30:44;;;;;;;1.50;1.38;;;20.90;1.00;;;;;;5058179;28;21460;-73
2023/09/02 09:33:11;;;;;;;1.38;1.20;;;21.00;1.00;;;;;;5059525;28;20050;-73
2023/09/02 09:35:38;;;;;;;1.20;1.00;;;21.10;99.90;;;;;;5039025;28;20057;-74
2023/09/02 09:38:05;;;;;;;1.50;1.23;;;21.30;99.90;;;;;;5044008;28;20274;-74
2023/09/02 09:40:33;;;;;;;1.30;1.20;;;21.50;1.00;;;;;;5063498;28;20075;-74
2023/09/02 09:43:01;;;;;;;1.70;1.48;;;21.80;1.00;;;;;;5091358;28;20824;-74
2023/09/02 09:45:29;;;;;;;1.48;1.23;;;21.90;48.60;;;;;;5066506;28;20452;-75
2023/09/02 09:47:57;;;;;;;1.00;0.77;;;22.00;99.90;;;;;;5066158;28;20114;-74
2023/09/02 09:50:24;;;;;;;1.63;1.10;;;22.00;1.00;;;;;;5062368;28;20040;-74
2023/09/02 09:53:09;;;;;;;1.92;1.00;;;21.90;99.90;;;;;;5063591;28;20083;-73
2023/09/02 09:55:37;;;;;;;0.85;0.70;;;21.90;99.90;;;;;;5056856;28;20055;-74
2023/09/02 09:58:05;;;;;;;1.13;0.80;;;21.90;99.90;;;;;;5063811;28;20110;-73
2023/09/02 10:00:31;;;;;;;0.45;0.45;;;21.90;50.40;;;;;;5057885;28;20124;-73
2023/09/02 10:02:59;;;;;;;0.95;0.85;;;22.10;99.90;;;;;;5072204;28;20102;-73
2023/09/02 10:05:28;;;;;;;0.82;0.70;;;22.50;1.00;;;;;;5068595;28;20661;-74
2023/09/02 10:07:59;;;;;;;0.93;0.82;;;22.60;99.90;;;;;;5066265;28;20048;-74
2023/09/02 10:10:29;;;;;;;0.93;0.90;;;22.80;1.00;;;;;;5033167;28;20055;-73
2023/09/02 10:12:57;;;;;;;1.08;0.82;;;23.00;42.30;;;;;;5060200;28;20068;-73
2023/09/02 10:15:25;;;;;;;2.28;1.08;;;23.10;99.90;;;;;;5057865;28;20463;-73
2023/09/02 10:17:59;;;;;;;2.55;1.23;;;23.00;99.90;;;;;;5039419;28;20162;-73
2023/09/02 10:20:28;;;;;;;1.83;1.27;;;22.80;1.00;;;;;;5090548;28;20166;-73
2023/09/02 10:23:00;;;;;;;1.10;0.68;;;22.70;1.00;;;;;;5064179;28;20515;-73
2023/09/02 10:25:28;;;;;;;1.63;1.10;;;22.60;99.90;;;;;;5076080;28;20129;-73
2023/09/02 10:28:05;;;;;;;1.10;0.82;;;22.60;99.90;;;;;;5068356;28;20052;-73
2023/09/02 10:30:43;;;;;;;1.20;0.70;;;22.60;99.90;;;;;;5067112;28;20077;-73
2023/09/02 10:33:22;;;;;;;0.65;0.60;;;22.70;99.90;;;;;;5062542;28;20055;-73
2023/09/02 10:36:00;;;;;;;1.25;0.80;;;22.80;1.00;;;;;;5060151;28;20489;-73
2023/09/02 10:38:28;;;;;;;1.17;0.90;;;22.90;99.90;;;;;;5057922;28;20127;-74
2023/09/02 10:41:13;;;;;;;1.25;1.00;;;22.80;28.50;;;;;;5074761;28;20041;-73
2023/09/02 10:43:40;;;;;;;1.02;0.85;;;22.60;99.90;;;;;;5061689;28;20056;-73
2023/09/02 10:46:10;;;;;;;1.17;0.80;;;22.60;40.00;;;;;;5049343;28;20040;-73
2023/09/02 10:48:43;;;;;;;1.70;1.10;;;22.60;70.60;;;;;;5083823;28;20522;-73
2023/09/02 10:51:09;;;;;;;1.00;0.80;;;22.60;19.40;;;;;;5052448;28;20088;-73
2023/09/02 10:53:51;;;;;;;0.90;0.70;;;22.60;86.10;;;;;;5035469;28;20079;-73
2023/09/02 10:56:34;;;;;;;2.08;0.75;;;22.60;11.00;;;;;;5057197;28;20765;-73
2023/09/02 10:59:04;;;;;;;0.93;0.80;;;22.60;21.10;;;;;;5058048;28;20057;-73
2023/09/02 11:01:50;;;;;;;1.95;0.88;;;22.60;8.90;;;;;;5076732;28;20120;-73
2023/09/02 11:04:43;;;;;;;2.42;1.50;;;22.60;15.70;;;;;;5071536;28;20052;-75
2023/09/02 11:07:20;;;;;;;3.47;1.67;;;22.80;1.00;;;;;;5051890;28;20102;-74
2023/09/02 11:09:51;;;;;;;2.75;1.60;;;23.00;53.00;;;;;;5044820;28;20079;-73
2023/09/02 11:12:18;;;;;;;2.70;1.45;;;23.30;1.00;;;;;;5059778;28;20053;-73
2023/09/02 11:15:07;;;;;;;2.67;1.80;;;23.70;1.00;;;;;;5060199;28;20123;-73
2023/09/02 11:17:34;;;;;;;2.17;1.67;;;23.90;1.00;;;;;;5060473;28;20055;-73
2023/09/02 11:20:03;;;;;;;9.80;6.15;;;23.90;1.00;;;;;;5026795;28;20056;-74
2023/09/02 11:22:52;;;;;;;4.28;3.13;;;23.90;1.00;;;;;;5060217;28;20071;-73
2023/09/02 11:25:41;;;;;;;3.00;2.30;;;23.80;1.00;;;;;;5060526;28;20036;-73
2023/09/02 11:28:26;;;;;;;2.90;1.83;;;23.70;1.00;;;;;;5056906;28;20044;-73
2023/09/02 11:31:10;;;;;;;5.13;2.53;;;23.40;1.00;;;;;;5058676;28;20139;-73
2023/09/02 11:33:38;;;;;;;4.28;2.95;;;23.30;1.00;;;;;;5055178;28;20060;-73
2023/09/02 11:36:08;;;;;;;5.40;3.45;;;23.60;1.00;;;;;;5059399;28;20193;-74
2023/09/02 11:38:35;;;;;;;5.00;3.08;;;23.70;1.00;;;;;;5055573;28;20127;-74
2023/09/02 11:41:02;;;;;;;3.92;2.92;;;23.80;1.00;;;;;;5054933;28;20045;-73
2023/09/02 11:43:31;;;;;;;4.22;2.67;;;24.00;1.00;;;;;;5058457;28;20056;-74
2023/09/02 11:45:59;;;;;;;5.28;2.67;;;24.30;1.00;;;;;;5058521;28;20052;-74
2023/09/02 11:48:27;;;;;;;8.15;4.55;;;24.70;1.00;;;;;;5055245;28;20079;-74
2023/09/02 11:50:58;;;;;;;6.18;3.30;;;25.10;1.00;;;;;;5041739;28;20139;-75
2023/09/02 11:53:28;;;;;;;5.45;3.38;;;25.00;1.00;;;;;;5057959;28;20209;-74
2023/09/02 11:55:56;;;;;;;8.05;5.32;;;24.80;1.00;;;;;;5053319;28;20044;-74
2023/09/02 11:58:23;;;;;;;10.02;4.88;;;24.60;1.00;;;;;;5052490;28;20056;-74
2023/09/02 12:00:50;;;;;;;10.82;6.65;;;24.50;1.00;;;;;;5069488;28;20562;-74
2023/09/02 12:03:24;;;;;;;5.43;3.90;;;24.10;1.00;;;;;;5058221;28;20072;-75
2023/09/02 12:05:52;;;;;;;10.32;6.05;;;24.20;1.00;;;;;;5057652;28;20052;-75
2023/09/02 12:08:19;;;;;;;39.22;28.25;;;24.50;1.00;;;;;;5052677;28;20094;-75
2023/09/02 12:10:46;;;;;;;20.42;16.15;;;23.90;99.90;;;;;;5057258;28;20048;-74
2023/09/02 12:13:13;;;;;;;75.93;56.75;;;23.80;99.90;;;;;;5058035;28;20519;-75
2023/09/02 12:15:40;;;;;;;45.65;34.55;;;22.80;1.00;;;;;;5056150;28;20571;-73
2023/09/02 12:18:07;;;;;;;21.45;16.27;;;22.50;97.70;;;;;;5056841;28;20056;-73
2023/09/02 12:20:34;;;;;;;15.60;11.18;;;22.60;99.90;;;;;;5052340;28;20114;-73
2023/09/02 12:23:01;;;;;;;14.32;9.90;;;23.40;99.90;;;;;;5063554;28;20048;-73
2023/09/02 12:25:28;;;;;;;6.85;5.47;;;23.90;1.00;;;;;;5039095;28;20083;-72
2023/09/02 12:28:11;;;;;;;5.45;4.22;;;24.60;1.00;;;;;;5055027;28;20045;-73
2023/09/02 12:30:38;;;;;;;4.22;3.40;;;25.30;1.00;;;;;;5031978;28;20062;-73
2023/09/02 12:33:05;;;;;;;3.90;2.45;;;25.40;1.00;;;;;;5039973;28;20095;-74
2023/09/02 12:35:33;;;;;;;4.13;3.13;;;25.00;1.00;;;;;;5054755;28;20118;-73
2023/09/02 12:38:03;;;;;;;1.90;1.50;;;24.80;1.00;;;;;;5051667;28;20202;-72
2023/09/02 12:40:31;;;;;;;2.08;1.20;;;25.00;1.00;;;;;;5054046;28;20052;-72
2023/09/02 12:42:58;;;;;;;1.33;1.10;;;25.60;1.00;;;;;;5053156;28;20048;-73
2023/09/02 12:45:32;;;;;;;0.95;0.70;;;26.30;1.00;;;;;;5040883;28;20552;-73
2023/09/02 12:48:01;;;;;;;0.95;0.80;;;27.10;1.00;;;;;;5041259;28;20044;-73
2023/09/02 12:50:29;;;;;;;0.57;0.50;;;27.30;99.90;;;;;;5057399;28;20088;-74
2023/09/02 12:52:58;;;;;;;0.80;0.70;;;27.40;99.90;;;;;;5035334;28;20072;-73
2023/09/02 12:55:25;;;;;;;0.75;0.70;;;27.60;99.90;;;;;;5055580;28;20048;-73